sensor_id;sensor_type;location;lat;lon;timestamp;temperature;humidity
74484;SHT31;62942;52.462;10.846;2023-12-04T00:01:06;-3.7;99
74484;SHT31;62942;52.462;10.846;2023-12-04T00:02:06;-3.8;99
74484;SHT31;62942;52.462;10.846;2023-12-04T00:03:16;-3.7;99
74484;SHT31;62942;52.462;10.846;2023-12-04T00:04:16;-3.7;98.9
74484;SHT31;62942;52.462;10.846;2023-12-04T00:05:26;-3.7;99
74484;SHT31;62942;52.462;10.846;2023-12-04T00:06:26;-3.7;98.9
74484;SHT31;62942;52.462;10.846;2023-12-04T00:07:36;-3.7;98.9
74484;SHT31;62942;52.462;10.846;2023-12-04T00:08:36;-3.7;98.9
74484;SHT31;62942;52.462;10.846;2023-12-04T00:09:46;-3.7;99
74484;SHT31;62942;52.462;10.846;2023-12-04T00:10:46;-3.7;98.9
74484;SHT31;62942;52.462;10.846;2023-12-04T00:11:56;-3.7;99
74484;SHT31;62942;52.462;10.846;2023-12-04T00:12:56;-3.7;99
74484;SHT31;62942;52.462;10.846;2023-12-04T00:13:56;-3.7;99
74484;SHT31;62942;52.462;10.846;2023-12-04T00:15:06;-3.7;98.9
74484;SHT31;62942;52.462;10.846;2023-12-04T00:16:06;-3.7;98.9
74484;SHT31;62942;52.462;10.846;2023-12-04T00:17:16;-3.7;98.9
74484;SHT31;62942;52.462;10.846;2023-12-04T00:18:16;-3.6;99
74484;SHT31;62942;52.462;10.846;2023-12-04T00:19:26;-3.7;98.9
74484;SHT31;62942;52.462;10.846;2023-12-04T00:20:26;-3.7;98.9
74484;SHT31;62942;52.462;10.846;2023-12-04T00:21:26;-3.7;99
74484;SHT31;62942;52.462;10.846;2023-12-04T00:22:36;-3.6;99
74484;SHT31;62942;52.462;10.846;2023-12-04T00:23:46;-3.7;98.9
74484;SHT31;62942;52.462;10.846;2023-12-04T00:24:46;-3.7;98.9
74484;SHT31;62942;52.462;10.846;2023-12-04T00:25:46;-3.7;98.9
74484;SHT31;62942;52.462;10.846;2023-12-04T00:26:56;-3.7;98.9
74484;SHT31;62942;52.462;10.846;2023-12-04T00:27:56;-3.7;98.9
74484;SHT31;62942;52.462;10.846;2023-12-04T00:29:06;-3.7;98.9
74484;SHT31;62942;52.462;10.846;2023-12-04T00:30:16;-3.7;99
74484;SHT31;62942;52.462;10.846;2023-12-04T00:31:16;-3.7;98.9
74484;SHT31;62942;52.462;10.846;2023-12-04T00:32:26;-3.7;99
74484;SHT31;62942;52.462;10.846;2023-12-04T00:33:36;-3.7;98.9
74484;SHT31;62942;52.462;10.846;2023-12-04T00:34:36;-3.7;98.9
74484;SHT31;62942;52.462;10.846;2023-12-04T00:35:46;-3.7;98.9
74484;SHT31;62942;52.462;10.846;2023-12-04T00:36:56;-3.7;98.9
74484;SHT31;62942;52.462;10.846;2023-12-04T00:37:56;-3.7;98.9
74484;SHT31;62942;52.462;10.846;2023-12-04T00:39:06;-3.7;98.9
74484;SHT31;62942;52.462;10.846;2023-12-04T00:40:16;-3.7;99
74484;SHT31;62942;52.462;10.846;2023-12-04T00:41:16;-3.7;98.9
74484;SHT31;62942;52.462;10.846;2023-12-04T00:42:26;-3.7;98.9
74484;SHT31;62942;52.462;10.846;2023-12-04T00:43:26;-3.7;98.9
74484;SHT31;62942;52.462;10.846;2023-12-04T00:44:36;-3.7;98.9
74484;SHT31;62942;52.462;10.846;2023-12-04T00:45:46;-3.7;98.9
74484;SHT31;62942;52.462;10.846;2023-12-04T00:46:56;-3.7;98.9
74484;SHT31;62942;52.462;10.846;2023-12-04T00:47:56;-3.8;98.9
74484;SHT31;62942;52.462;10.846;2023-12-04T00:48:56;-3.8;98.9
74484;SHT31;62942;52.462;10.846;2023-12-04T00:50:06;-3.8;98.8
74484;SHT31;62942;52.462;10.846;2023-12-04T00:51:06;-3.8;98.9
74484;SHT31;62942;52.462;10.846;2023-12-04T00:52:16;-3.8;98.9
74484;SHT31;62942;52.462;10.846;2023-12-04T00:53:16;-3.8;98.8
74484;SHT31;62942;52.462;10.846;2023-12-04T00:54:26;-3.8;98.9
74484;SHT31;62942;52.462;10.846;2023-12-04T00:55:26;-3.8;98.9
74484;SHT31;62942;52.462;10.846;2023-12-04T00:56:37;-3.8;98.8
74484;SHT31;62942;52.462;10.846;2023-12-04T00:57:36;-3.8;98.8
74484;SHT31;62942;52.462;10.846;2023-12-04T00:58:46;-3.8;98.8
74484;SHT31;62942;52.462;10.846;2023-12-04T00:59:46;-3.8;98.8
74484;SHT31;62942;52.462;10.846;2023-12-04T01:00:56;-3.9;98.8
74484;SHT31;62942;52.462;10.846;2023-12-04T01:01:56;-3.8;98.8
74484;SHT31;62942;52.462;10.846;2023-12-04T01:03:06;-3.9;98.8
74484;SHT31;62942;52.462;10.846;2023-12-04T01:04:06;-3.8;98.8
74484;SHT31;62942;52.462;10.846;2023-12-04T01:05:16;-3.8;98.8
74484;SHT31;62942;52.462;10.846;2023-12-04T01:06:26;-3.8;98.8
74484;SHT31;62942;52.462;10.846;2023-12-04T01:07:26;-3.8;98.8
74484;SHT31;62942;52.462;10.846;2023-12-04T01:08:26;-3.8;98.8
74484;SHT31;62942;52.462;10.846;2023-12-04T01:09:36;-3.8;98.7
74484;SHT31;62942;52.462;10.846;2023-12-04T01:10:36;-3.8;98.7
74484;SHT31;62942;52.462;10.846;2023-12-04T01:11:46;-3.8;98.8
74484;SHT31;62942;52.462;10.846;2023-12-04T01:12:46;-3.8;98.7
74484;SHT31;62942;52.462;10.846;2023-12-04T01:13:56;-3.8;98.7
74484;SHT31;62942;52.462;10.846;2023-12-04T01:14:56;-3.8;98.7
74484;SHT31;62942;52.462;10.846;2023-12-04T01:16:06;-3.8;98.7
74484;SHT31;62942;52.462;10.846;2023-12-04T01:17:16;-3.8;98.7
74484;SHT31;62942;52.462;10.846;2023-12-04T01:18:16;-3.8;98.7
74484;SHT31;62942;52.462;10.846;2023-12-04T01:19:16;-3.8;98.7
74484;SHT31;62942;52.462;10.846;2023-12-04T01:20:26;-3.8;98.7
74484;SHT31;62942;52.462;10.846;2023-12-04T01:21:36;-3.8;98.7
74484;SHT31;62942;52.462;10.846;2023-12-04T01:22:36;-3.7;98.6
74484;SHT31;62942;52.462;10.846;2023-12-04T01:23:46;-3.7;98.7
74484;SHT31;62942;52.462;10.846;2023-12-04T01:24:56;-3.8;98.6
74484;SHT31;62942;52.462;10.846;2023-12-04T01:25:56;-3.7;98.6
74484;SHT31;62942;52.462;10.846;2023-12-04T01:27:06;-3.7;98.7
74484;SHT31;62942;52.462;10.846;2023-12-04T01:28:06;-3.7;98.6
74484;SHT31;62942;52.462;10.846;2023-12-04T01:29:16;-3.7;98.7
74484;SHT31;62942;52.462;10.846;2023-12-04T01:30:16;-3.7;98.6
74484;SHT31;62942;52.462;10.846;2023-12-04T01:31:26;-3.7;98.6
74484;SHT31;62942;52.462;10.846;2023-12-04T01:32:26;-3.7;98.6
74484;SHT31;62942;52.462;10.846;2023-12-04T01:33:36;-3.7;98.6
74484;SHT31;62942;52.462;10.846;2023-12-04T01:34:36;-3.7;98.6
74484;SHT31;62942;52.462;10.846;2023-12-04T01:35:46;-3.7;98.6
74484;SHT31;62942;52.462;10.846;2023-12-04T01:36:46;-3.7;98.6
74484;SHT31;62942;52.462;10.846;2023-12-04T01:37:56;-3.7;98.6
74484;SHT31;62942;52.462;10.846;2023-12-04T01:39:06;-3.6;98.5
74484;SHT31;62942;52.462;10.846;2023-12-04T01:40:16;-3.7;98.5
74484;SHT31;62942;52.462;10.846;2023-12-04T01:41:16;-3.6;98.5
74484;SHT31;62942;52.462;10.846;2023-12-04T01:42:26;-3.6;98.5
74484;SHT31;62942;52.462;10.846;2023-12-04T01:43:36;-3.6;98.5
74484;SHT31;62942;52.462;10.846;2023-12-04T01:44:46;-3.6;98.5
74484;SHT31;62942;52.462;10.846;2023-12-04T01:45:56;-3.6;98.5
74484;SHT31;62942;52.462;10.846;2023-12-04T01:47:06;-3.6;98.5
74484;SHT31;62942;52.462;10.846;2023-12-04T01:48:16;-3.6;98.4
74484;SHT31;62942;52.462;10.846;2023-12-04T01:49:26;-3.6;98.5
74484;SHT31;62942;52.462;10.846;2023-12-04T01:50:26;-3.6;98.5
74484;SHT31;62942;52.462;10.846;2023-12-04T01:51:36;-3.6;98.5
74484;SHT31;62942;52.462;10.846;2023-12-04T01:52:46;-3.6;98.4
74484;SHT31;62942;52.462;10.846;2023-12-04T01:53:46;-3.5;98.5
74484;SHT31;62942;52.462;10.846;2023-12-04T01:54:56;-3.6;98.4
74484;SHT31;62942;52.462;10.846;2023-12-04T01:56:06;-3.5;98.4
74484;SHT31;62942;52.462;10.846;2023-12-04T01:57:16;-3.6;98.4
74484;SHT31;62942;52.462;10.846;2023-12-04T01:58:16;-3.6;98.4
74484;SHT31;62942;52.462;10.846;2023-12-04T01:59:26;-3.6;98.4
74484;SHT31;62942;52.462;10.846;2023-12-04T02:00:36;-3.6;98.4
74484;SHT31;62942;52.462;10.846;2023-12-04T02:01:46;-3.6;98.4
74484;SHT31;62942;52.462;10.846;2023-12-04T02:02:56;-3.6;98.4
74484;SHT31;62942;52.462;10.846;2023-12-04T02:03:56;-3.6;98.4
74484;SHT31;62942;52.462;10.846;2023-12-04T02:05:06;-3.6;98.4
74484;SHT31;62942;52.462;10.846;2023-12-04T02:06:16;-3.7;98.4
74484;SHT31;62942;52.462;10.846;2023-12-04T02:07:26;-3.7;98.4
74484;SHT31;62942;52.462;10.846;2023-12-04T02:08:26;-3.6;98.4
74484;SHT31;62942;52.462;10.846;2023-12-04T02:09:36;-3.7;98.3
74484;SHT31;62942;52.462;10.846;2023-12-04T02:10:36;-3.7;98.3
74484;SHT31;62942;52.462;10.846;2023-12-04T02:11:46;-3.7;98.2
74484;SHT31;62942;52.462;10.846;2023-12-04T02:12:46;-3.7;98.3
74484;SHT31;62942;52.462;10.846;2023-12-04T02:13:46;-3.7;98.3
74484;SHT31;62942;52.462;10.846;2023-12-04T02:14:56;-3.7;98.3
74484;SHT31;62942;52.462;10.846;2023-12-04T02:16:07;-3.7;98.3
74484;SHT31;62942;52.462;10.846;2023-12-04T02:17:16;-3.7;98.3
74484;SHT31;62942;52.462;10.846;2023-12-04T02:18:26;-3.7;98.3
74484;SHT31;62942;52.462;10.846;2023-12-04T02:19:26;-3.7;98.3
74484;SHT31;62942;52.462;10.846;2023-12-04T02:20:36;-3.7;98.3
74484;SHT31;62942;52.462;10.846;2023-12-04T02:21:46;-3.7;98.3
74484;SHT31;62942;52.462;10.846;2023-12-04T02:22:56;-3.7;98.3
74484;SHT31;62942;52.462;10.846;2023-12-04T02:23:56;-3.7;98.3
74484;SHT31;62942;52.462;10.846;2023-12-04T02:25:06;-3.7;98.2
74484;SHT31;62942;52.462;10.846;2023-12-04T02:26:16;-3.7;98.3
74484;SHT31;62942;52.462;10.846;2023-12-04T02:27:26;-3.7;98.2
74484;SHT31;62942;52.462;10.846;2023-12-04T02:28:36;-3.6;98.3
74484;SHT31;62942;52.462;10.846;2023-12-04T02:29:46;-3.6;98.2
74484;SHT31;62942;52.462;10.846;2023-12-04T02:30:46;-3.6;98.2
74484;SHT31;62942;52.462;10.846;2023-12-04T02:31:56;-3.6;98.2
74484;SHT31;62942;52.462;10.846;2023-12-04T02:33:06;-3.6;98.2
74484;SHT31;62942;52.462;10.846;2023-12-04T02:34:06;-3.6;98.2
74484;SHT31;62942;52.462;10.846;2023-12-04T02:35:16;-3.5;98.2
74484;SHT31;62942;52.462;10.846;2023-12-04T02:36:26;-3.5;98.2
74484;SHT31;62942;52.462;10.846;2023-12-04T02:37:26;-3.5;98.2
74484;SHT31;62942;52.462;10.846;2023-12-04T02:38:36;-3.5;98.2
74484;SHT31;62942;52.462;10.846;2023-12-04T02:39:36;-3.5;98.2
74484;SHT31;62942;52.462;10.846;2023-12-04T02:40:46;-3.5;98.2
74484;SHT31;62942;52.462;10.846;2023-12-04T02:41:46;-3.5;98.2
74484;SHT31;62942;52.462;10.846;2023-12-04T02:42:56;-3.5;98.1
74484;SHT31;62942;52.462;10.846;2023-12-04T02:43:56;-3.4;98.2
74484;SHT31;62942;52.462;10.846;2023-12-04T02:45:06;-3.4;98.2
74484;SHT31;62942;52.462;10.846;2023-12-04T02:46:06;-3.4;98.2
74484;SHT31;62942;52.462;10.846;2023-12-04T02:47:16;-3.4;98.2
74484;SHT31;62942;52.462;10.846;2023-12-04T02:48:16;-3.4;98.2
74484;SHT31;62942;52.462;10.846;2023-12-04T02:49:26;-3.4;98.2
74484;SHT31;62942;52.462;10.846;2023-12-04T02:50:36;-3.4;98.1
74484;SHT31;62942;52.462;10.846;2023-12-04T02:51:46;-3.3;98.2
74484;SHT31;62942;52.462;10.846;2023-12-04T02:52:56;-3.3;98.2
74484;SHT31;62942;52.462;10.846;2023-12-04T02:54:06;-3.3;98.2
74484;SHT31;62942;52.462;10.846;2023-12-04T02:55:06;-3.3;98.2
74484;SHT31;62942;52.462;10.846;2023-12-04T02:56:16;-3.3;98.2
74484;SHT31;62942;52.462;10.846;2023-12-04T02:57:16;-3.3;98.2
74484;SHT31;62942;52.462;10.846;2023-12-04T02:58:16;-3.2;98.2
74484;SHT31;62942;52.462;10.846;2023-12-04T02:59:26;-3.3;98.2
74484;SHT31;62942;52.462;10.846;2023-12-04T03:00:36;-3.3;98.1
74484;SHT31;62942;52.462;10.846;2023-12-04T03:01:36;-3.3;98.1
74484;SHT31;62942;52.462;10.846;2023-12-04T03:02:36;-3.3;98.1
74484;SHT31;62942;52.462;10.846;2023-12-04T03:03:46;-3.3;98.1
74484;SHT31;62942;52.462;10.846;2023-12-04T03:04:56;-3.3;98
74484;SHT31;62942;52.462;10.846;2023-12-04T03:05:56;-3.3;98
74484;SHT31;62942;52.462;10.846;2023-12-04T03:07:06;-3.3;98
74484;SHT31;62942;52.462;10.846;2023-12-04T03:08:16;-3.4;98.1
74484;SHT31;62942;52.462;10.846;2023-12-04T03:09:16;-3.4;98
74484;SHT31;62942;52.462;10.846;2023-12-04T03:10:26;-3.4;98.1
74484;SHT31;62942;52.462;10.846;2023-12-04T03:11:38;-3.4;98
74484;SHT31;62942;52.462;10.846;2023-12-04T03:12:36;-3.4;98
74484;SHT31;62942;52.462;10.846;2023-12-04T03:13:36;-3.4;98
74484;SHT31;62942;52.462;10.846;2023-12-04T03:14:46;-3.4;98
74484;SHT31;62942;52.462;10.846;2023-12-04T03:15:46;-3.4;98
74484;SHT31;62942;52.462;10.846;2023-12-04T03:16:56;-3.4;98
74484;SHT31;62942;52.462;10.846;2023-12-04T03:18:06;-3.4;97.9
74484;SHT31;62942;52.462;10.846;2023-12-04T03:19:16;-3.4;98
74484;SHT31;62942;52.462;10.846;2023-12-04T03:20:26;-3.4;98
74484;SHT31;62942;52.462;10.846;2023-12-04T03:21:26;-3.4;97.9
74484;SHT31;62942;52.462;10.846;2023-12-04T03:22:36;-3.4;97.9
74484;SHT31;62942;52.462;10.846;2023-12-04T03:23:36;-3.4;97.8
74484;SHT31;62942;52.462;10.846;2023-12-04T03:24:46;-3.4;97.8
74484;SHT31;62942;52.462;10.846;2023-12-04T03:25:46;-3.4;97.8
74484;SHT31;62942;52.462;10.846;2023-12-04T03:26:56;-3.3;97.8
74484;SHT31;62942;52.462;10.846;2023-12-04T03:27:56;-3.3;97.8
74484;SHT31;62942;52.462;10.846;2023-12-04T03:29:06;-3.3;97.8
74484;SHT31;62942;52.462;10.846;2023-12-04T03:30:16;-3.3;97.7
74484;SHT31;62942;52.462;10.846;2023-12-04T03:31:16;-3.3;97.7
74484;SHT31;62942;52.462;10.846;2023-12-04T03:32:26;-3.3;97.7
74484;SHT31;62942;52.462;10.846;2023-12-04T03:33:26;-3.2;97.7
74484;SHT31;62942;52.462;10.846;2023-12-04T03:34:36;-3.2;97.7
74484;SHT31;62942;52.462;10.846;2023-12-04T03:35:46;-3.2;97.7
74484;SHT31;62942;52.462;10.846;2023-12-04T03:36:56;-3.2;97.7
74484;SHT31;62942;52.462;10.846;2023-12-04T03:37:56;-3.1;97.7
74484;SHT31;62942;52.462;10.846;2023-12-04T03:39:06;-3.1;97.7
74484;SHT31;62942;52.462;10.846;2023-12-04T03:40:16;-3.1;97.6
74484;SHT31;62942;52.462;10.846;2023-12-04T03:41:16;-3.1;97.6
74484;SHT31;62942;52.462;10.846;2023-12-04T03:42:16;-3.1;97.6
74484;SHT31;62942;52.462;10.846;2023-12-04T03:43:26;-3.1;97.6
74484;SHT31;62942;52.462;10.846;2023-12-04T03:44:36;-3.1;97.6
74484;SHT31;62942;52.462;10.846;2023-12-04T03:45:36;-3.1;97.5
74484;SHT31;62942;52.462;10.846;2023-12-04T03:46:46;-3;97.5
74484;SHT31;62942;52.462;10.846;2023-12-04T03:47:56;-3.1;97.5
74484;SHT31;62942;52.462;10.846;2023-12-04T03:49:06;-3;97.4
74484;SHT31;62942;52.462;10.846;2023-12-04T03:50:06;-3;97.4
74484;SHT31;62942;52.462;10.846;2023-12-04T03:51:06;-3;97.4
74484;SHT31;62942;52.462;10.846;2023-12-04T03:52:16;-3;97.3
74484;SHT31;62942;52.462;10.846;2023-12-04T03:53:26;-3;97.3
74484;SHT31;62942;52.462;10.846;2023-12-04T03:54:36;-3;97.3
74484;SHT31;62942;52.462;10.846;2023-12-04T03:55:36;-3;97.3
74484;SHT31;62942;52.462;10.846;2023-12-04T03:56:46;-3;97.3
74484;SHT31;62942;52.462;10.846;2023-12-04T03:57:46;-3;97.2
74484;SHT31;62942;52.462;10.846;2023-12-04T03:58:56;-2.9;97.2
74484;SHT31;62942;52.462;10.846;2023-12-04T03:59:56;-2.9;97.2
74484;SHT31;62942;52.462;10.846;2023-12-04T04:01:06;-2.9;97.2
74484;SHT31;62942;52.462;10.846;2023-12-04T04:02:06;-2.9;97.1
74484;SHT31;62942;52.462;10.846;2023-12-04T04:03:16;-2.9;97.1
74484;SHT31;62942;52.462;10.846;2023-12-04T04:04:26;-2.9;97.1
74484;SHT31;62942;52.462;10.846;2023-12-04T04:05:26;-2.9;97
74484;SHT31;62942;52.462;10.846;2023-12-04T04:06:36;-2.9;97
74484;SHT31;62942;52.462;10.846;2023-12-04T04:07:36;-2.9;97
74484;SHT31;62942;52.462;10.846;2023-12-04T04:08:46;-2.9;96.9
74484;SHT31;62942;52.462;10.846;2023-12-04T04:09:46;-2.9;96.8
74484;SHT31;62942;52.462;10.846;2023-12-04T04:10:56;-2.9;96.8
74484;SHT31;62942;52.462;10.846;2023-12-04T04:11:56;-2.9;96.7
74484;SHT31;62942;52.462;10.846;2023-12-04T04:13:06;-2.9;96.7
74484;SHT31;62942;52.462;10.846;2023-12-04T04:14:06;-2.9;96.8
74484;SHT31;62942;52.462;10.846;2023-12-04T04:15:16;-2.9;96.7
74484;SHT31;62942;52.462;10.846;2023-12-04T04:16:16;-2.8;96.6
74484;SHT31;62942;52.462;10.846;2023-12-04T04:17:26;-2.8;96.6
74484;SHT31;62942;52.462;10.846;2023-12-04T04:18:26;-2.8;96.7
74484;SHT31;62942;52.462;10.846;2023-12-04T04:19:36;-2.8;96.7
74484;SHT31;62942;52.462;10.846;2023-12-04T04:20:46;-2.8;96.5
74484;SHT31;62942;52.462;10.846;2023-12-04T04:21:46;-2.8;96.4
74484;SHT31;62942;52.462;10.846;2023-12-04T04:22:47;-2.8;96.5
74484;SHT31;62942;52.462;10.846;2023-12-04T04:23:56;-2.7;96.5
74484;SHT31;62942;52.462;10.846;2023-12-04T04:24:56;-2.8;96.5
74484;SHT31;62942;52.462;10.846;2023-12-04T04:26:06;-2.7;96.5
74484;SHT31;62942;52.462;10.846;2023-12-04T04:27:06;-2.7;96.5
74484;SHT31;62942;52.462;10.846;2023-12-04T04:28:16;-2.7;96.4
74484;SHT31;62942;52.462;10.846;2023-12-04T04:29:26;-2.7;96.1
74484;SHT31;62942;52.462;10.846;2023-12-04T04:30:26;-2.7;96.1
74484;SHT31;62942;52.462;10.846;2023-12-04T04:31:36;-2.7;96.1
74484;SHT31;62942;52.462;10.846;2023-12-04T04:32:36;-2.7;96.2
74484;SHT31;62942;52.462;10.846;2023-12-04T04:33:46;-2.6;96
74484;SHT31;62942;52.462;10.846;2023-12-04T04:34:46;-2.6;95.8
74484;SHT31;62942;52.462;10.846;2023-12-04T04:35:56;-2.6;95.8
74484;SHT31;62942;52.462;10.846;2023-12-04T04:37:06;-2.6;95.8
74484;SHT31;62942;52.462;10.846;2023-12-04T04:38:16;-2.6;95.7
74484;SHT31;62942;52.462;10.846;2023-12-04T04:39:26;-2.6;95.6
74484;SHT31;62942;52.462;10.846;2023-12-04T04:40:26;-2.6;95.6
74484;SHT31;62942;52.462;10.846;2023-12-04T04:41:36;-2.6;95.5
74484;SHT31;62942;52.462;10.846;2023-12-04T04:42:36;-2.5;95.5
74484;SHT31;62942;52.462;10.846;2023-12-04T04:43:46;-2.5;95.5
74484;SHT31;62942;52.462;10.846;2023-12-04T04:44:56;-2.5;95.4
74484;SHT31;62942;52.462;10.846;2023-12-04T04:45:56;-2.5;95.1
74484;SHT31;62942;52.462;10.846;2023-12-04T04:47:06;-2.5;95.2
74484;SHT31;62942;52.462;10.846;2023-12-04T04:48:16;-2.5;95.3
74484;SHT31;62942;52.462;10.846;2023-12-04T04:49:26;-2.5;95.3
74484;SHT31;62942;52.462;10.846;2023-12-04T04:50:26;-2.5;95.2
74484;SHT31;62942;52.462;10.846;2023-12-04T04:51:36;-2.5;95.2
74484;SHT31;62942;52.462;10.846;2023-12-04T04:52:36;-2.5;95.1
74484;SHT31;62942;52.462;10.846;2023-12-04T04:53:46;-2.5;94.9
74484;SHT31;62942;52.462;10.846;2023-12-04T04:54:56;-2.4;95
74484;SHT31;62942;52.462;10.846;2023-12-04T04:56:07;-2.4;95.1
74484;SHT31;62942;52.462;10.846;2023-12-04T04:57:16;-2.4;95
74484;SHT31;62942;52.462;10.846;2023-12-04T04:58:16;-2.4;95.1
74484;SHT31;62942;52.462;10.846;2023-12-04T04:59:26;-2.4;95.1
74484;SHT31;62942;52.462;10.846;2023-12-04T05:00:36;-2.4;95.1
74484;SHT31;62942;52.462;10.846;2023-12-04T05:01:36;-2.4;95
74484;SHT31;62942;52.462;10.846;2023-12-04T05:02:46;-2.4;95
74484;SHT31;62942;52.462;10.846;2023-12-04T05:03:46;-2.3;95
74484;SHT31;62942;52.462;10.846;2023-12-04T05:04:56;-2.4;95
74484;SHT31;62942;52.462;10.846;2023-12-04T05:05:56;-2.3;95
74484;SHT31;62942;52.462;10.846;2023-12-04T05:07:06;-2.3;95
74484;SHT31;62942;52.462;10.846;2023-12-04T05:08:06;-2.3;95
74484;SHT31;62942;52.462;10.846;2023-12-04T05:09:16;-2.3;94.9
74484;SHT31;62942;52.462;10.846;2023-12-04T05:10:26;-2.3;94.8
74484;SHT31;62942;52.462;10.846;2023-12-04T05:11:36;-2.3;94.8
74484;SHT31;62942;52.462;10.846;2023-12-04T05:12:46;-2.3;94.9
74484;SHT31;62942;52.462;10.846;2023-12-04T05:13:56;-2.3;94.8
74484;SHT31;62942;52.462;10.846;2023-12-04T05:14:56;-2.3;94.8
74484;SHT31;62942;52.462;10.846;2023-12-04T05:16:06;-2.3;94.7
74484;SHT31;62942;52.462;10.846;2023-12-04T05:17:16;-2.3;94.7
74484;SHT31;62942;52.462;10.846;2023-12-04T05:18:16;-2.3;94.7
74484;SHT31;62942;52.462;10.846;2023-12-04T05:19:26;-2.3;94.8
74484;SHT31;62942;52.462;10.846;2023-12-04T05:20:36;-2.3;94.8
74484;SHT31;62942;52.462;10.846;2023-12-04T05:21:46;-2.3;94.8
74484;SHT31;62942;52.462;10.846;2023-12-04T05:22:56;-2.3;94.8
74484;SHT31;62942;52.462;10.846;2023-12-04T05:24:06;-2.2;94.9
74484;SHT31;62942;52.462;10.846;2023-12-04T05:25:15;-2.3;94.9
74484;SHT31;62942;52.462;10.846;2023-12-04T05:26:16;-2.3;94.8
74484;SHT31;62942;52.462;10.846;2023-12-04T05:27:25;-2.2;94.9
74484;SHT31;62942;52.462;10.846;2023-12-04T05:28:36;-2.2;94.9
74484;SHT31;62942;52.462;10.846;2023-12-04T05:29:46;-2.2;94.9
74484;SHT31;62942;52.462;10.846;2023-12-04T05:30:46;-2.2;94.9
74484;SHT31;62942;52.462;10.846;2023-12-04T05:31:56;-2.2;94.9
74484;SHT31;62942;52.462;10.846;2023-12-04T05:33:06;-2.2;94.9
74484;SHT31;62942;52.462;10.846;2023-12-04T05:34:05;-2.2;94.8
74484;SHT31;62942;52.462;10.846;2023-12-04T05:35:15;-2.2;94.9
74484;SHT31;62942;52.462;10.846;2023-12-04T05:36:26;-2.2;94.8
74484;SHT31;62942;52.462;10.846;2023-12-04T05:37:26;-2.2;94.7
74484;SHT31;62942;52.462;10.846;2023-12-04T05:38:36;-2.2;94.6
74484;SHT31;62942;52.462;10.846;2023-12-04T05:39:45;-2.2;94.6
74484;SHT31;62942;52.462;10.846;2023-12-04T05:40:46;-2.2;94.4
74484;SHT31;62942;52.462;10.846;2023-12-04T05:41:46;-2.2;94.3
74484;SHT31;62942;52.462;10.846;2023-12-04T05:42:55;-2.2;94.4
74484;SHT31;62942;52.462;10.846;2023-12-04T05:44:05;-2.2;94.4
74484;SHT31;62942;52.462;10.846;2023-12-04T05:45:16;-2.2;94.2
74484;SHT31;62942;52.462;10.846;2023-12-04T05:46:25;-2.2;94.2
74484;SHT31;62942;52.462;10.846;2023-12-04T05:47:36;-2.2;94.2
74484;SHT31;62942;52.462;10.846;2023-12-04T05:48:46;-2.2;94.2
74484;SHT31;62942;52.462;10.846;2023-12-04T05:49:55;-2.2;93.9
74484;SHT31;62942;52.462;10.846;2023-12-04T05:51:06;-2.2;93.6
74484;SHT31;62942;52.462;10.846;2023-12-04T05:52:15;-2.2;93.6
74484;SHT31;62942;52.462;10.846;2023-12-04T05:53:25;-2.2;93.3
74484;SHT31;62942;52.462;10.846;2023-12-04T05:54:35;-2.2;93.2
74484;SHT31;62942;52.462;10.846;2023-12-04T05:55:35;-2.2;93.4
74484;SHT31;62942;52.462;10.846;2023-12-04T05:56:46;-2.2;93.5
74484;SHT31;62942;52.462;10.846;2023-12-04T05:57:55;-2.2;93.4
74484;SHT31;62942;52.462;10.846;2023-12-04T05:59:05;-2.2;93.4
74484;SHT31;62942;52.462;10.846;2023-12-04T06:00:06;-2.2;93.4
74484;SHT31;62942;52.462;10.846;2023-12-04T06:01:15;-2.2;93.5
74484;SHT31;62942;52.462;10.846;2023-12-04T06:02:25;-2.2;93.4
74484;SHT31;62942;52.462;10.846;2023-12-04T06:03:35;-2.2;93.1
74484;SHT31;62942;52.462;10.846;2023-12-04T06:04:35;-2.2;93.3
74484;SHT31;62942;52.462;10.846;2023-12-04T06:05:45;-2.2;93.2
74484;SHT31;62942;52.462;10.846;2023-12-04T06:06:55;-2.2;93.1
74484;SHT31;62942;52.462;10.846;2023-12-04T06:08:05;-2.2;93.1
74484;SHT31;62942;52.462;10.846;2023-12-04T06:09:15;-2.2;93.1
74484;SHT31;62942;52.462;10.846;2023-12-04T06:10:15;-2.2;93
74484;SHT31;62942;52.462;10.846;2023-12-04T06:11:25;-2.1;92.6
74484;SHT31;62942;52.462;10.846;2023-12-04T06:12:35;-2.1;92.6
74484;SHT31;62942;52.462;10.846;2023-12-04T06:13:35;-2.1;92.5
74484;SHT31;62942;52.462;10.846;2023-12-04T06:14:35;-2.1;92.6
74484;SHT31;62942;52.462;10.846;2023-12-04T06:15:45;-2.1;92.5
74484;SHT31;62942;52.462;10.846;2023-12-04T06:16:45;-2.1;92.3
74484;SHT31;62942;52.462;10.846;2023-12-04T06:17:55;-2.1;92.2
74484;SHT31;62942;52.462;10.846;2023-12-04T06:18:55;-2.1;92.3
74484;SHT31;62942;52.462;10.846;2023-12-04T06:20:06;-2.1;92.2
74484;SHT31;62942;52.462;10.846;2023-12-04T06:21:06;-2.1;92.1
74484;SHT31;62942;52.462;10.846;2023-12-04T06:22:16;-2.1;91.9
74484;SHT31;62942;52.462;10.846;2023-12-04T06:23:26;-2;92
74484;SHT31;62942;52.462;10.846;2023-12-04T06:24:36;-2;92.1
74484;SHT31;62942;52.462;10.846;2023-12-04T06:25:46;-2;92
74484;SHT31;62942;52.462;10.846;2023-12-04T06:26:45;-2;91.7
74484;SHT31;62942;52.462;10.846;2023-12-04T06:27:56;-2;91.7
74484;SHT31;62942;52.462;10.846;2023-12-04T06:29:06;-2;91.8
74484;SHT31;62942;52.462;10.846;2023-12-04T06:30:16;-2;91.6
74484;SHT31;62942;52.462;10.846;2023-12-04T06:31:26;-2;91.6
74484;SHT31;62942;52.462;10.846;2023-12-04T06:32:36;-2;91.6
74484;SHT31;62942;52.462;10.846;2023-12-04T06:33:46;-2;91.7
74484;SHT31;62942;52.462;10.846;2023-12-04T06:34:56;-2;91.7
74484;SHT31;62942;52.462;10.846;2023-12-04T06:36:06;-2;91.5
74484;SHT31;62942;52.462;10.846;2023-12-04T06:37:16;-2;91.5
74484;SHT31;62942;52.462;10.846;2023-12-04T06:38:26;-2;91.5
74484;SHT31;62942;52.462;10.846;2023-12-04T06:39:35;-2;91.4
74484;SHT31;62942;52.462;10.846;2023-12-04T06:40:36;-2;91.4
74484;SHT31;62942;52.462;10.846;2023-12-04T06:41:46;-2;91.3
74484;SHT31;62942;52.462;10.846;2023-12-04T06:42:55;-1.9;91.3
74484;SHT31;62942;52.462;10.846;2023-12-04T06:44:06;-1.9;91.1
74484;SHT31;62942;52.462;10.846;2023-12-04T06:45:16;-1.9;91
74484;SHT31;62942;52.462;10.846;2023-12-04T06:46:15;-1.9;90.9
74484;SHT31;62942;52.462;10.846;2023-12-04T06:47:26;-1.9;90.7
74484;SHT31;62942;52.462;10.846;2023-12-04T06:48:36;-1.9;90.7
74484;SHT31;62942;52.462;10.846;2023-12-04T06:49:45;-1.9;90.8
74484;SHT31;62942;52.462;10.846;2023-12-04T06:50:55;-1.9;90.7
74484;SHT31;62942;52.462;10.846;2023-12-04T06:52:05;-1.9;90.6
74484;SHT31;62942;52.462;10.846;2023-12-04T06:53:15;-1.9;90.3
74484;SHT31;62942;52.462;10.846;2023-12-04T06:54:25;-1.9;90.4
74484;SHT31;62942;52.462;10.846;2023-12-04T06:55:35;-1.8;90.5
74484;SHT31;62942;52.462;10.846;2023-12-04T06:56:45;-1.8;90.4
74484;SHT31;62942;52.462;10.846;2023-12-04T06:57:45;-1.9;90.3
74484;SHT31;62942;52.462;10.846;2023-12-04T06:58:55;-1.9;90.4
74484;SHT31;62942;52.462;10.846;2023-12-04T07:00:06;-1.8;90.1
74484;SHT31;62942;52.462;10.846;2023-12-04T07:01:15;-1.8;90.2
74484;SHT31;62942;52.462;10.846;2023-12-04T07:02:25;-1.8;90.2
74484;SHT31;62942;52.462;10.846;2023-12-04T07:03:35;-1.8;90.2
74484;SHT31;62942;52.462;10.846;2023-12-04T07:04:45;-1.8;90.1
74484;SHT31;62942;52.462;10.846;2023-12-04T07:05:55;-1.8;90
74484;SHT31;62942;52.462;10.846;2023-12-04T07:06:55;-1.8;90.1
74484;SHT31;62942;52.462;10.846;2023-12-04T07:08:05;-1.8;89.9
74484;SHT31;62942;52.462;10.846;2023-12-04T07:09:15;-1.8;89.7
74484;SHT31;62942;52.462;10.846;2023-12-04T07:10:25;-1.8;89.8